createdAt,value
2018-12-23T00:00:15.828Z,8.10
2018-12-23T00:01:15.705Z,8.25
2018-12-23T00:02:15.688Z,8.12
2018-12-23T00:03:15.660Z,8.15
2018-12-23T00:04:15.648Z,8.12
2018-12-23T00:05:15.609Z,8.12
2018-12-23T00:06:15.585Z,8.07
2018-12-23T00:07:15.576Z,8.11
2018-12-23T00:08:15.539Z,8.11
2018-12-23T00:09:15.517Z,8.08
2018-12-23T00:10:15.504Z,8.08
2018-12-23T00:11:15.477Z,8.12
2018-12-23T00:12:15.450Z,8.12
2018-12-23T00:13:15.428Z,8.12
2018-12-23T00:14:15.405Z,8.10
2018-12-23T00:15:15.392Z,8.12
2018-12-23T00:16:15.363Z,8.15
2018-12-23T00:17:15.335Z,8.16
2018-12-23T00:18:15.313Z,8.10
2018-12-23T00:19:15.289Z,8.15
2018-12-23T00:20:15.267Z,8.11
2018-12-23T00:21:15.242Z,8.12
2018-12-23T00:22:15.229Z,8.18
2018-12-23T00:23:15.207Z,8.16
2018-12-23T00:24:15.172Z,8.10
2018-12-23T00:25:15.151Z,8.15
2018-12-23T00:26:15.125Z,8.12
2018-12-23T00:27:15.105Z,8.25
2018-12-23T00:28:15.078Z,8.20
2018-12-23T00:29:15.055Z,8.11
2018-12-23T00:30:15.040Z,8.22
2018-12-23T00:31:15.016Z,8.20
2018-12-23T00:32:14.989Z,8.15
2018-12-23T00:33:14.969Z,8.16
2018-12-23T00:34:14.943Z,8.12
2018-12-23T00:35:20.204Z,8.20
2018-12-23T00:36:14.896Z,8.26
2018-12-23T00:37:14.873Z,8.23
2018-12-23T00:38:14.852Z,8.22
2018-12-23T00:39:14.828Z,8.18
2018-12-23T00:40:14.815Z,8.19
2018-12-23T00:41:14.782Z,8.19
2018-12-23T00:42:14.756Z,8.23
2018-12-23T00:43:14.742Z,8.16
2018-12-23T00:44:14.712Z,8.19
2018-12-23T00:45:14.694Z,8.16
2018-12-23T00:46:14.676Z,8.23
2018-12-23T00:47:14.643Z,8.19
2018-12-23T00:48:14.620Z,8.18
2018-12-23T00:49:14.606Z,8.22
2018-12-23T00:50:14.576Z,8.19
2018-12-23T00:51:14.550Z,8.20
2018-12-23T00:52:14.526Z,8.33
2018-12-23T00:53:14.505Z,8.22
2018-12-23T00:54:14.495Z,8.22
2018-12-23T00:55:14.460Z,8.20
2018-12-23T00:56:14.441Z,8.29
2018-12-23T00:57:14.413Z,8.20
2018-12-23T00:58:14.394Z,8.19
2018-12-23T00:59:14.366Z,8.25
2018-12-23T01:00:14.344Z,8.25
2018-12-23T01:01:14.323Z,8.23
2018-12-23T01:02:14.300Z,8.25
2018-12-23T01:03:14.277Z,8.25
2018-12-23T01:04:14.250Z,8.25
2018-12-23T01:05:14.231Z,8.19
2018-12-23T01:06:14.204Z,8.23
2018-12-23T01:07:14.186Z,8.28
2018-12-23T01:08:14.168Z,8.20
2018-12-23T01:09:14.146Z,8.25
2018-12-23T01:10:14.129Z,8.30
2018-12-23T01:11:14.096Z,8.25
2018-12-23T01:12:14.073Z,8.23
2018-12-23T01:13:14.046Z,8.22
2018-12-23T01:14:14.024Z,8.20
2018-12-23T01:15:14.003Z,8.26
2018-12-23T01:16:13.981Z,8.29
2018-12-23T01:17:13.955Z,8.19
2018-12-23T01:18:13.932Z,8.19
2018-12-23T01:19:13.910Z,8.22
2018-12-23T01:20:13.886Z,8.28
2018-12-23T01:21:13.862Z,8.29
2018-12-23T01:22:13.848Z,8.22
2018-12-23T01:23:13.820Z,8.28
2018-12-23T01:24:13.794Z,8.20
2018-12-23T01:25:13.772Z,8.33
2018-12-23T01:26:13.749Z,8.33
2018-12-23T01:27:13.725Z,8.30
2018-12-23T01:28:13.701Z,8.29
2018-12-23T01:29:13.683Z,8.33
2018-12-23T01:30:13.658Z,8.28
2018-12-23T01:31:13.634Z,8.33
2018-12-23T01:32:13.610Z,8.37
2018-12-23T01:33:13.589Z,8.33
2018-12-23T01:34:13.574Z,8.34
2018-12-23T01:35:13.545Z,8.30
2018-12-23T01:36:13.520Z,8.34
2018-12-23T01:37:13.499Z,8.23
2018-12-23T01:38:13.475Z,8.34
2018-12-23T01:39:13.452Z,8.30
2018-12-23T01:40:13.428Z,8.36
2018-12-23T01:41:13.405Z,8.29
2018-12-23T01:42:13.389Z,8.34
2018-12-23T01:43:13.360Z,8.30
2018-12-23T01:44:13.338Z,8.34
2018-12-23T01:45:13.316Z,8.36
2018-12-23T01:46:13.290Z,8.29
2018-12-23T01:47:13.274Z,8.41
2018-12-23T01:48:13.245Z,8.36
2018-12-23T01:49:13.223Z,8.26
2018-12-23T01:50:13.200Z,8.30
2018-12-23T01:51:13.178Z,8.34
2018-12-23T01:52:13.155Z,8.25
2018-12-23T01:53:13.134Z,8.26
2018-12-23T01:54:13.114Z,8.37
2018-12-23T01:55:13.087Z,8.29
2018-12-23T01:56:13.063Z,8.33
2018-12-23T01:57:13.042Z,8.37
2018-12-23T01:58:13.016Z,8.36
2018-12-23T01:59:12.997Z,8.29
2018-12-23T02:00:12.974Z,8.36
2018-12-23T02:01:12.951Z,8.37
2018-12-23T02:02:12.948Z,8.34
2018-12-23T02:03:12.909Z,8.38
2018-12-23T02:04:12.880Z,8.37
2018-12-23T02:05:12.857Z,8.43
2018-12-23T02:06:13.444Z,8.44
2018-12-23T02:07:12.812Z,8.36
2018-12-23T02:08:12.789Z,8.41
2018-12-23T02:09:12.764Z,8.40
2018-12-23T02:10:12.746Z,8.40
2018-12-23T02:11:12.726Z,8.36
2018-12-23T02:12:12.696Z,8.44
2018-12-23T02:13:12.677Z,8.37
2018-12-23T02:14:12.654Z,8.38
2018-12-23T02:15:12.629Z,8.40
2018-12-23T02:16:12.608Z,8.38
2018-12-23T02:17:12.583Z,8.41
2018-12-23T02:18:12.566Z,8.38
2018-12-23T02:19:12.537Z,8.36
2018-12-23T02:20:12.513Z,8.36
2018-12-23T02:21:12.492Z,8.40
2018-12-23T02:22:12.474Z,8.37
2018-12-23T02:23:12.448Z,8.44
2018-12-23T02:24:12.424Z,8.45
2018-12-23T02:25:12.406Z,8.36
2018-12-23T02:26:12.376Z,8.40
2018-12-23T02:27:12.360Z,8.43
2018-12-23T02:28:12.332Z,8.41
2018-12-23T02:29:12.307Z,8.37
2018-12-23T02:30:12.286Z,8.37
2018-12-23T02:31:12.265Z,8.41
2018-12-23T02:32:12.240Z,8.40
2018-12-23T02:33:12.217Z,8.40
2018-12-23T02:34:12.195Z,8.50
2018-12-23T02:35:12.173Z,8.40
2018-12-23T02:36:12.149Z,8.44
2018-12-23T02:37:12.124Z,8.45
2018-12-23T02:38:12.107Z,8.44
2018-12-23T02:39:12.096Z,8.41
2018-12-23T02:40:12.061Z,8.41
2018-12-23T02:41:12.036Z,8.41
2018-12-23T02:42:12.016Z,8.50
2018-12-23T02:43:11.993Z,8.41
2018-12-23T02:44:11.969Z,8.43
2018-12-23T02:45:11.942Z,8.44
2018-12-23T02:46:11.921Z,8.48
2018-12-23T02:47:11.898Z,8.41
2018-12-23T02:48:11.876Z,8.48
2018-12-23T02:49:11.850Z,8.41
2018-12-23T02:50:11.831Z,8.43
2018-12-23T02:51:11.808Z,8.37
2018-12-23T02:52:11.783Z,8.41
2018-12-23T02:53:11.759Z,8.44
2018-12-23T02:54:11.737Z,8.44
2018-12-23T02:55:11.724Z,8.43
2018-12-23T02:56:11.700Z,8.41
2018-12-23T02:57:11.679Z,8.40
2018-12-23T02:58:11.646Z,8.44
2018-12-23T02:59:11.625Z,8.43
2018-12-23T03:00:11.602Z,8.43
2018-12-23T03:01:11.576Z,8.43
2018-12-23T03:02:11.554Z,8.40
2018-12-23T03:03:11.532Z,8.44
2018-12-23T03:04:11.507Z,8.41
2018-12-23T03:05:11.484Z,8.38
2018-12-23T03:06:11.467Z,8.36
2018-12-23T03:07:11.439Z,8.36
2018-12-23T03:08:11.418Z,8.40
2018-12-23T03:09:11.400Z,8.41
2018-12-23T03:10:11.371Z,8.38
2018-12-23T03:11:11.355Z,8.40
2018-12-23T03:12:11.329Z,8.41
2018-12-23T03:13:11.304Z,8.40
2018-12-23T03:14:11.280Z,8.38
2018-12-23T03:15:11.264Z,8.38
2018-12-23T03:16:11.235Z,8.34
2018-12-23T03:17:11.212Z,8.38
2018-12-23T03:18:11.193Z,8.34
2018-12-23T03:19:11.166Z,8.29
2018-12-23T03:20:11.143Z,8.37
2018-12-23T03:21:11.120Z,8.34
2018-12-23T03:22:11.098Z,8.34
2018-12-23T03:23:11.085Z,8.30
2018-12-23T03:24:11.077Z,8.34
2018-12-23T03:25:11.030Z,8.36
2018-12-23T03:26:11.005Z,8.33
2018-12-23T03:27:10.985Z,8.33
2018-12-23T03:28:10.960Z,8.29
2018-12-23T03:29:10.936Z,8.34
2018-12-23T03:30:10.916Z,8.37
2018-12-23T03:31:10.894Z,8.34
2018-12-23T03:32:10.883Z,8.26
2018-12-23T03:33:10.859Z,8.23
2018-12-23T03:34:10.823Z,8.29
2018-12-23T03:35:10.803Z,8.26
2018-12-23T03:36:15.252Z,8.34
2018-12-23T03:37:10.761Z,8.33
2018-12-23T03:38:10.733Z,8.34
2018-12-23T03:39:10.712Z,8.34
2018-12-23T03:40:10.688Z,8.25
2018-12-23T03:41:10.664Z,8.25
2018-12-23T03:42:10.650Z,8.25
2018-12-23T03:43:10.619Z,8.30
2018-12-23T03:44:10.598Z,8.22
2018-12-23T03:45:10.571Z,8.23
2018-12-23T03:46:10.551Z,8.25
2018-12-23T03:47:10.527Z,8.28
2018-12-23T03:48:10.514Z,8.19
2018-12-23T03:49:10.488Z,8.25
2018-12-23T03:50:10.471Z,8.25
2018-12-23T03:51:10.438Z,8.07
2018-12-23T03:52:10.411Z,8.12
2018-12-23T03:53:10.392Z,8.18
2018-12-23T03:54:10.383Z,8.10
2018-12-23T03:55:10.358Z,8.08
2018-12-23T03:56:10.326Z,8.12
2018-12-23T03:57:10.299Z,8.11
2018-12-23T03:58:10.274Z,8.16
2018-12-23T03:59:10.251Z,8.15
2018-12-23T04:00:10.228Z,8.15
2018-12-23T04:01:10.206Z,8.12
2018-12-23T04:02:10.183Z,8.18
2018-12-23T04:03:10.162Z,8.10
2018-12-23T04:04:10.138Z,8.10
2018-12-23T04:05:10.124Z,8.10
2018-12-23T04:06:10.105Z,8.07
2018-12-23T04:07:10.076Z,8.08
2018-12-23T04:08:10.047Z,8.16
2018-12-23T04:09:10.028Z,8.18
2018-12-23T04:10:10.010Z,8.11
2018-12-23T04:11:09.978Z,8.16
2018-12-23T04:12:09.954Z,8.10
2018-12-23T04:13:09.933Z,8.07
2018-12-23T04:14:09.910Z,8.16
2018-12-23T04:15:09.887Z,8.16
2018-12-23T04:16:09.866Z,8.18
2018-12-23T04:17:09.845Z,8.15
2018-12-23T04:18:09.816Z,8.12
2018-12-23T04:19:09.792Z,8.16
2018-12-23T04:20:09.772Z,8.18
2018-12-23T04:21:09.752Z,8.12
2018-12-23T04:22:09.727Z,8.16
2018-12-23T04:23:09.706Z,8.11
2018-12-23T04:24:09.677Z,8.22
2018-12-23T04:25:09.659Z,8.16
2018-12-23T04:26:09.638Z,8.10
2018-12-23T04:27:09.619Z,8.10
2018-12-23T04:28:09.590Z,8.16
2018-12-23T04:29:09.564Z,8.12
2018-12-23T04:30:09.545Z,8.16
2018-12-23T04:31:09.517Z,8.15
2018-12-23T04:32:09.493Z,8.16
2018-12-23T04:33:09.472Z,8.12
2018-12-23T04:34:09.450Z,8.10
2018-12-23T04:35:09.559Z,8.15
2018-12-23T04:36:09.406Z,8.10
2018-12-23T04:37:09.381Z,8.22
2018-12-23T04:38:09.357Z,8.07
2018-12-23T04:39:09.333Z,8.08
2018-12-23T04:40:09.312Z,8.26
2018-12-23T04:41:09.290Z,8.22
2018-12-23T04:42:09.271Z,8.26
2018-12-23T04:43:09.242Z,8.20
2018-12-23T04:44:09.219Z,8.15
2018-12-23T04:45:09.211Z,8.20
2018-12-23T04:46:09.176Z,8.12
2018-12-23T04:47:09.152Z,8.16
2018-12-23T04:48:09.127Z,8.28
2018-12-23T04:49:09.136Z,8.25
2018-12-23T04:50:09.081Z,8.15
2018-12-23T04:51:09.064Z,8.22
2018-12-23T04:52:09.042Z,8.23
2018-12-23T04:53:09.014Z,8.19
2018-12-23T04:54:08.989Z,8.15
2018-12-23T04:55:08.969Z,8.12
2018-12-23T04:56:08.943Z,8.08
2018-12-23T04:57:08.923Z,8.28
2018-12-23T04:58:08.899Z,8.22
2018-12-23T04:59:08.876Z,8.23
2018-12-23T05:00:08.853Z,8.20
2018-12-23T05:01:08.831Z,8.29
2018-12-23T05:02:08.807Z,8.19
2018-12-23T05:03:08.784Z,8.18
2018-12-23T05:04:08.765Z,8.20
2018-12-23T05:05:08.739Z,8.18
2018-12-23T05:06:08.725Z,8.22
2018-12-23T05:07:08.703Z,8.20
2018-12-23T05:08:08.670Z,8.26
2018-12-23T05:09:08.646Z,8.22
2018-12-23T05:10:08.632Z,8.25
2018-12-23T05:11:08.602Z,8.25
2018-12-23T05:12:08.601Z,8.22
2018-12-23T05:13:08.556Z,8.28
2018-12-23T05:14:08.536Z,8.33
2018-12-23T05:15:08.511Z,8.25
2018-12-23T05:16:08.488Z,8.30
2018-12-23T05:17:08.465Z,8.29
2018-12-23T05:18:08.442Z,8.36
2018-12-23T05:19:08.420Z,8.23
2018-12-23T05:20:08.400Z,8.30
2018-12-23T05:21:08.381Z,8.23
2018-12-23T05:22:08.356Z,8.23
2018-12-23T05:23:08.331Z,8.23
2018-12-23T05:24:08.307Z,8.26
2018-12-23T05:25:08.281Z,8.25
2018-12-23T05:26:08.262Z,8.28
2018-12-23T05:27:08.236Z,8.36
2018-12-23T05:28:08.220Z,8.29
2018-12-23T05:29:08.192Z,8.34
2018-12-23T05:30:08.174Z,8.25
2018-12-23T05:31:08.147Z,8.33
2018-12-23T05:32:08.121Z,8.26
2018-12-23T05:33:08.100Z,8.23
2018-12-23T05:34:08.077Z,8.34
2018-12-23T05:35:08.060Z,8.26
2018-12-23T05:36:08.038Z,8.30
2018-12-23T05:37:08.007Z,8.30
2018-12-23T05:38:07.983Z,8.36
2018-12-23T05:39:07.963Z,8.30
2018-12-23T05:40:07.949Z,8.30
2018-12-23T05:41:07.915Z,8.30
2018-12-23T05:42:07.902Z,8.25
2018-12-23T05:43:07.868Z,8.28
2018-12-23T05:44:07.848Z,8.30
2018-12-23T05:45:07.825Z,8.30
2018-12-23T05:46:07.804Z,8.36
2018-12-23T05:47:07.784Z,8.33
2018-12-23T05:48:07.755Z,8.30
2018-12-23T05:49:07.731Z,8.34
2018-12-23T05:50:07.709Z,8.36
2018-12-23T05:51:07.685Z,8.26
2018-12-23T05:52:07.671Z,8.30
2018-12-23T05:53:07.642Z,8.30
2018-12-23T05:54:07.625Z,8.36
2018-12-23T05:55:07.598Z,8.36
2018-12-23T05:56:07.570Z,8.34
2018-12-23T05:57:07.546Z,8.37
2018-12-23T05:58:07.523Z,8.36
2018-12-23T05:59:07.501Z,8.29
2018-12-23T06:00:07.480Z,8.36
2018-12-23T06:01:07.453Z,8.33
2018-12-23T06:02:07.444Z,8.29
2018-12-23T06:03:07.410Z,8.34
2018-12-23T06:04:07.385Z,8.37
2018-12-23T06:05:07.362Z,8.34
2018-12-23T06:06:07.341Z,8.34
2018-12-23T06:07:07.315Z,8.29
2018-12-23T06:08:07.295Z,8.37
2018-12-23T06:09:07.273Z,8.34
2018-12-23T06:10:07.261Z,8.36
2018-12-23T06:11:07.225Z,8.37
2018-12-23T06:12:07.206Z,8.33
2018-12-23T06:13:07.179Z,8.36
2018-12-23T06:14:07.163Z,8.29
2018-12-23T06:15:07.133Z,8.29
2018-12-23T06:16:07.111Z,8.34
2018-12-23T06:17:07.087Z,8.36
2018-12-23T06:18:07.064Z,8.38
2018-12-23T06:19:07.044Z,8.37
2018-12-23T06:20:07.026Z,8.36
2018-12-23T06:21:07.001Z,8.33
2018-12-23T06:22:06.981Z,8.29
2018-12-23T06:23:07.065Z,8.34
2018-12-23T06:24:06.925Z,8.30
2018-12-23T06:25:06.904Z,8.33
2018-12-23T06:26:06.889Z,8.29
2018-12-23T06:27:06.856Z,8.30
2018-12-23T06:28:06.834Z,8.37
2018-12-23T06:29:06.826Z,8.30
2018-12-23T06:30:06.789Z,8.38
2018-12-23T06:31:06.765Z,8.29
2018-12-23T06:32:06.742Z,8.33
2018-12-23T06:33:06.722Z,8.37
2018-12-23T06:34:06.701Z,8.30
2018-12-23T06:35:06.672Z,8.34
2018-12-23T06:36:06.658Z,8.37
2018-12-23T06:37:10.368Z,8.38
2018-12-23T06:38:06.607Z,8.38
2018-12-23T06:39:06.580Z,8.37
2018-12-23T06:40:06.557Z,8.38
2018-12-23T06:41:06.539Z,8.40
2018-12-23T06:42:06.511Z,8.38
2018-12-23T06:43:06.490Z,8.30
2018-12-23T06:44:06.479Z,8.33
2018-12-23T06:45:06.443Z,8.34
2018-12-23T06:46:06.420Z,8.37
2018-12-23T06:47:06.398Z,8.36
2018-12-23T06:48:06.380Z,8.37
2018-12-23T06:49:06.353Z,8.38
2018-12-23T06:50:06.334Z,8.37
2018-12-23T06:51:06.306Z,8.37
2018-12-23T06:52:06.284Z,8.38
2018-12-23T06:53:06.258Z,8.43
2018-12-23T06:54:06.253Z,8.40
2018-12-23T06:55:06.222Z,8.37
2018-12-23T06:56:06.191Z,8.43
2018-12-23T06:57:06.167Z,8.40
2018-12-23T06:58:06.149Z,8.38
2018-12-23T06:59:06.122Z,8.37
2018-12-23T07:00:06.099Z,8.40
2018-12-23T07:01:06.075Z,8.38
2018-12-23T07:02:06.055Z,8.40
2018-12-23T07:03:06.029Z,8.38
2018-12-23T07:04:06.006Z,8.41
2018-12-23T07:05:05.991Z,8.41
2018-12-23T07:06:05.963Z,8.37
2018-12-23T07:07:05.941Z,8.43
2018-12-23T07:08:05.923Z,8.34
2018-12-23T07:09:05.895Z,8.38
2018-12-23T07:10:05.871Z,8.34
2018-12-23T07:11:05.851Z,8.37
2018-12-23T07:12:05.825Z,8.34
2018-12-23T07:13:05.802Z,8.40
2018-12-23T07:14:05.784Z,8.43
2018-12-23T07:15:05.764Z,8.41
2018-12-23T07:16:05.743Z,8.38
2018-12-23T07:17:05.713Z,8.38
2018-12-23T07:18:05.694Z,8.41
2018-12-23T07:19:05.671Z,8.43
2018-12-23T07:20:05.646Z,8.38
2018-12-23T07:21:05.623Z,8.37
2018-12-23T07:22:05.612Z,8.34
2018-12-23T07:23:05.576Z,8.38
2018-12-23T07:24:05.550Z,8.48
2018-12-23T07:25:05.533Z,8.40
2018-12-23T07:26:05.503Z,8.37
2018-12-23T07:27:05.483Z,8.38
2018-12-23T07:28:05.462Z,8.43
2018-12-23T07:29:05.436Z,8.41
2018-12-23T07:30:05.416Z,8.38
2018-12-23T07:31:05.400Z,8.43
2018-12-23T07:32:05.368Z,8.38
2018-12-23T07:33:05.347Z,8.40
2018-12-23T07:34:05.327Z,8.43
2018-12-23T07:35:05.299Z,8.33
2018-12-23T07:36:05.279Z,8.40
2018-12-23T07:37:05.254Z,8.43
2018-12-23T07:38:05.278Z,8.40
2018-12-23T07:39:05.209Z,8.41
2018-12-23T07:40:05.183Z,8.48
2018-12-23T07:41:05.162Z,8.36
2018-12-23T07:42:05.146Z,8.40
2018-12-23T07:43:05.118Z,8.45
2018-12-23T07:44:05.095Z,8.40
2018-12-23T07:45:05.070Z,8.43
2018-12-23T07:46:05.047Z,8.41
2018-12-23T07:47:05.024Z,8.41
2018-12-23T07:48:05.003Z,8.43
2018-12-23T07:49:04.981Z,8.47
2018-12-23T07:50:04.956Z,8.36
2018-12-23T07:51:04.933Z,8.37
2018-12-23T07:52:04.919Z,8.41
2018-12-23T07:53:04.887Z,8.43
2018-12-23T07:54:04.867Z,8.37
2018-12-23T07:55:04.841Z,8.40
2018-12-23T07:56:04.820Z,8.40
2018-12-23T07:57:04.798Z,8.45
2018-12-23T07:58:04.781Z,8.45
2018-12-23T07:59:04.752Z,8.45
2018-12-23T08:00:04.727Z,8.40
2018-12-23T08:01:04.703Z,8.44
2018-12-23T08:02:04.690Z,8.40
2018-12-23T08:03:04.661Z,8.40
2018-12-23T08:04:04.637Z,8.37
2018-12-23T08:05:04.613Z,8.45
2018-12-23T08:06:04.591Z,8.50
2018-12-23T08:07:04.567Z,8.44
2018-12-23T08:08:04.545Z,8.43
2018-12-23T08:09:04.530Z,8.43
2018-12-23T08:10:04.503Z,8.41
2018-12-23T08:11:04.479Z,8.43
2018-12-23T08:12:04.454Z,8.37
2018-12-23T08:13:04.432Z,8.43
2018-12-23T08:14:04.407Z,8.40
2018-12-23T08:15:04.387Z,8.41
2018-12-23T08:16:04.362Z,8.47
2018-12-23T08:17:04.339Z,8.48
2018-12-23T08:18:05.869Z,8.47
2018-12-23T08:19:04.294Z,8.45
2018-12-23T08:20:04.271Z,8.41
2018-12-23T08:21:04.249Z,8.41
2018-12-23T08:22:04.225Z,8.44
2018-12-23T08:23:04.208Z,8.52
2018-12-23T08:24:04.178Z,8.52
2018-12-23T08:25:04.161Z,8.53
2018-12-23T08:26:04.137Z,8.48
2018-12-23T08:27:04.110Z,8.53
2018-12-23T08:28:04.096Z,8.50
2018-12-23T08:29:04.065Z,8.41
2018-12-23T08:30:04.043Z,8.55
2018-12-23T08:31:04.027Z,8.45
2018-12-23T08:32:03.995Z,8.47
2018-12-23T08:33:03.980Z,8.55
2018-12-23T08:34:03.951Z,8.47
2018-12-23T08:35:03.927Z,8.55
2018-12-23T08:36:03.904Z,8.50
2018-12-23T08:37:03.890Z,8.44
2018-12-23T08:38:03.865Z,8.48
2018-12-23T08:39:03.837Z,8.52
2018-12-23T08:40:03.812Z,8.45
2018-12-23T08:41:03.789Z,8.50
2018-12-23T08:42:03.766Z,8.47
2018-12-23T08:43:03.745Z,8.56
2018-12-23T08:44:03.727Z,8.53
2018-12-23T08:45:03.700Z,8.53
2018-12-23T08:46:03.675Z,8.53
2018-12-23T08:47:03.653Z,8.56
2018-12-23T08:48:03.632Z,8.59
2018-12-23T08:49:03.607Z,8.59
2018-12-23T08:50:03.586Z,8.58
2018-12-23T08:51:03.563Z,8.56
2018-12-23T08:52:03.541Z,8.41
2018-12-23T08:53:03.520Z,8.56
2018-12-23T08:54:03.497Z,8.52
2018-12-23T08:55:03.473Z,8.55
2018-12-23T08:56:03.448Z,8.56
2018-12-23T08:57:03.449Z,8.58
2018-12-23T08:58:03.414Z,8.55
2018-12-23T08:59:03.386Z,8.55
2018-12-23T09:00:03.364Z,8.50
2018-12-23T09:01:03.337Z,8.53
2018-12-23T09:02:03.313Z,8.56
2018-12-23T09:03:06.039Z,8.62
2018-12-23T09:04:03.270Z,8.55
2018-12-23T09:05:03.243Z,8.53
2018-12-23T09:06:03.222Z,8.53
2018-12-23T09:07:03.202Z,8.56
2018-12-23T09:08:03.175Z,8.55
2018-12-23T09:09:03.172Z,8.58
2018-12-23T09:10:03.140Z,8.58
2018-12-23T09:11:03.119Z,8.59
2018-12-23T09:12:03.086Z,8.61
2018-12-23T09:13:03.058Z,8.55
2018-12-23T09:14:03.036Z,8.59
2018-12-23T09:15:03.022Z,8.65
2018-12-23T09:16:02.990Z,8.61
2018-12-23T09:17:02.978Z,8.66
2018-12-23T09:18:02.950Z,8.63
2018-12-23T09:19:02.925Z,8.63
2018-12-23T09:20:02.913Z,8.62
2018-12-23T09:21:02.878Z,8.61
2018-12-23T09:22:02.878Z,8.68
2018-12-23T09:23:02.835Z,8.61
2018-12-23T09:24:02.818Z,8.68
2018-12-23T09:25:02.787Z,8.61
2018-12-23T09:26:02.762Z,8.61
2018-12-23T09:27:02.742Z,8.61
2018-12-23T09:28:02.719Z,8.63
2018-12-23T09:29:02.696Z,8.56
2018-12-23T09:30:02.672Z,8.68
2018-12-23T09:31:02.650Z,8.68
2018-12-23T09:32:02.627Z,8.66
2018-12-23T09:33:02.604Z,8.59
2018-12-23T09:34:02.585Z,8.61
2018-12-23T09:35:02.564Z,8.62
2018-12-23T09:36:02.544Z,8.58
2018-12-23T09:37:02.519Z,8.58
2018-12-23T09:38:02.502Z,8.56
2018-12-23T09:39:02.477Z,8.68
2018-12-23T09:40:02.442Z,8.58
2018-12-23T09:41:02.422Z,8.65
2018-12-23T09:42:02.399Z,8.58
2018-12-23T09:43:02.377Z,8.66
2018-12-23T09:44:02.352Z,8.68
2018-12-23T09:45:02.330Z,8.58
2018-12-23T09:46:02.308Z,8.63
2018-12-23T09:47:02.285Z,8.59
2018-12-23T09:48:02.269Z,8.65
2018-12-23T09:49:02.239Z,8.59
2018-12-23T09:50:02.226Z,8.68
2018-12-23T09:51:02.204Z,8.56
2018-12-23T09:52:02.180Z,8.58
2018-12-23T09:53:02.148Z,8.62
2018-12-23T09:54:02.125Z,8.71
2018-12-23T09:55:02.112Z,8.74
2018-12-23T09:56:02.083Z,8.63
2018-12-23T09:57:02.057Z,8.66
2018-12-23T09:58:02.035Z,8.66
2018-12-23T09:59:02.013Z,8.70
2018-12-23T10:00:01.989Z,8.66
2018-12-23T10:01:01.975Z,8.65
2018-12-23T10:02:01.953Z,8.65
2018-12-23T10:03:01.932Z,8.68
2018-12-23T10:04:01.904Z,8.71
2018-12-23T10:05:01.876Z,8.73
2018-12-23T10:06:01.853Z,8.68
2018-12-23T10:07:01.830Z,8.70
2018-12-23T10:08:09.770Z,8.71
2018-12-23T10:09:01.786Z,8.63
2018-12-23T10:10:01.765Z,8.68
2018-12-23T10:11:01.740Z,8.73
2018-12-23T10:12:01.724Z,8.77
2018-12-23T10:13:01.707Z,8.61
2018-12-23T10:14:01.675Z,8.73
2018-12-23T10:15:01.652Z,8.73
2018-12-23T10:16:01.629Z,8.68
2018-12-23T10:17:01.602Z,8.65
2018-12-23T10:18:01.587Z,8.70
2018-12-23T10:19:01.562Z,8.77
2018-12-23T10:20:01.541Z,8.81
2018-12-23T10:21:01.516Z,8.74
2018-12-23T10:22:01.493Z,8.74
2018-12-23T10:23:01.483Z,8.76
2018-12-23T10:24:01.451Z,8.74
2018-12-23T10:25:01.431Z,8.74
2018-12-23T10:26:01.406Z,8.77
2018-12-23T10:27:01.378Z,8.74
2018-12-23T10:28:01.358Z,8.80
2018-12-23T10:29:01.339Z,8.80
2018-12-23T10:30:01.324Z,8.80
2018-12-23T10:31:01.290Z,8.79
2018-12-23T10:32:01.273Z,8.81
2018-12-23T10:33:01.244Z,8.84
2018-12-23T10:34:01.226Z,8.80
2018-12-23T10:35:01.222Z,8.86
2018-12-23T10:36:01.178Z,8.80
2018-12-23T10:37:01.153Z,8.83
2018-12-23T10:38:01.134Z,8.79
2018-12-23T10:39:01.117Z,8.81
2018-12-23T10:40:01.089Z,8.83
2018-12-23T10:41:01.070Z,8.94
2018-12-23T10:42:01.054Z,8.77
2018-12-23T10:43:01.388Z,8.94
2018-12-23T10:44:00.999Z,8.87
2018-12-23T10:45:00.994Z,8.77
2018-12-23T10:46:00.953Z,8.76
2018-12-23T10:47:00.930Z,8.87
2018-12-23T10:48:00.914Z,8.76
2018-12-23T10:49:00.888Z,8.84
2018-12-23T10:50:00.863Z,8.83
2018-12-23T10:51:00.840Z,8.80
2018-12-23T10:52:00.821Z,8.76
2018-12-23T10:53:00.795Z,8.84
2018-12-23T10:54:00.782Z,8.89
2018-12-23T10:55:00.753Z,8.87
2018-12-23T10:56:00.732Z,8.86
2018-12-23T10:57:00.710Z,8.80
2018-12-23T10:58:00.684Z,8.80
2018-12-23T10:59:00.660Z,8.89
2018-12-23T11:00:00.635Z,8.81
2018-12-23T11:01:00.620Z,8.87
2018-12-23T11:02:00.595Z,8.83
2018-12-23T11:03:00.566Z,8.83
2018-12-23T11:04:00.546Z,8.91
2018-12-23T11:05:00.526Z,8.87
2018-12-23T11:06:00.501Z,8.81
2018-12-23T11:07:00.484Z,8.91
2018-12-23T11:08:00.469Z,8.92
2018-12-23T11:09:00.434Z,8.99
2018-12-23T11:10:02.237Z,8.94
2018-12-23T11:11:00.387Z,8.92
2018-12-23T11:12:00.372Z,8.91
2018-12-23T11:13:00.345Z,8.99
2018-12-23T11:14:00.320Z,8.92
2018-12-23T11:15:00.353Z,9.01
2018-12-23T11:16:00.276Z,8.99
2018-12-23T11:17:00.253Z,8.94
2018-12-23T11:18:00.247Z,8.98
2018-12-23T11:19:00.208Z,9.05
2018-12-23T11:20:00.184Z,9.01
2018-12-23T11:21:00.163Z,8.98
2018-12-23T11:22:00.139Z,8.98
2018-12-23T11:23:00.123Z,9.10
2018-12-23T11:24:00.094Z,9.01
2018-12-23T11:25:00.144Z,9.04
2018-12-23T11:26:00.051Z,9.08
2018-12-23T11:27:00.035Z,9.01
2018-12-23T11:28:00.004Z,9.02
2018-12-23T11:28:59.981Z,9.08
2018-12-23T11:29:59.965Z,9.05
2018-12-23T11:30:59.946Z,9.02
2018-12-23T11:31:59.931Z,8.98
2018-12-23T11:32:59.900Z,9.02
2018-12-23T11:33:59.872Z,9.04
2018-12-23T11:34:59.846Z,9.01
2018-12-23T11:35:59.836Z,9.08
2018-12-23T11:36:59.815Z,9.11
2018-12-23T11:37:59.791Z,9.14
2018-12-23T11:38:59.764Z,9.14
2018-12-23T11:39:59.751Z,9.05
2018-12-23T11:40:59.726Z,9.15
2018-12-23T11:41:59.700Z,9.05
2018-12-23T11:42:59.671Z,9.11
2018-12-23T11:43:59.646Z,9.11
2018-12-23T11:44:59.622Z,9.08
2018-12-23T11:45:59.605Z,9.02
2018-12-23T11:46:59.584Z,9.02
2018-12-23T11:47:59.565Z,9.05
2018-12-23T11:48:59.532Z,9.02
2018-12-23T11:49:59.522Z,9.02
2018-12-23T11:50:59.506Z,9.02
2018-12-23T11:51:59.472Z,9.02
2018-12-23T11:52:59.445Z,9.08
2018-12-23T11:53:59.422Z,9.08
2018-12-23T11:54:59.398Z,9.08
2018-12-23T11:55:59.376Z,9.01
2018-12-23T11:56:59.354Z,9.08
2018-12-23T11:57:59.331Z,9.04
2018-12-23T11:58:59.316Z,9.02
2018-12-23T11:59:59.286Z,8.96
2018-12-23T12:00:59.263Z,8.94
2018-12-23T12:01:59.239Z,8.98
2018-12-23T12:02:59.230Z,8.96
2018-12-23T12:03:59.195Z,8.96
2018-12-23T12:04:59.173Z,8.94
2018-12-23T12:05:59.158Z,8.89
2018-12-23T12:06:59.130Z,8.89
2018-12-23T12:07:59.125Z,8.89
2018-12-23T12:09:06.808Z,8.95
2018-12-23T12:09:59.067Z,8.87
2018-12-23T12:10:59.040Z,8.83
2018-12-23T12:11:59.021Z,8.89
2018-12-23T12:12:58.995Z,8.76
2018-12-23T12:13:58.972Z,8.70
2018-12-23T12:14:58.958Z,8.83
2018-12-23T12:15:58.934Z,8.73
2018-12-23T12:16:58.906Z,8.80
2018-12-23T12:17:58.883Z,8.70
2018-12-23T12:18:58.867Z,8.80
2018-12-23T12:19:58.841Z,8.79
2018-12-23T12:20:58.815Z,8.74
2018-12-23T12:21:58.802Z,8.58
2018-12-23T12:22:58.770Z,8.62
2018-12-23T12:23:58.752Z,8.53
2018-12-23T12:24:58.727Z,8.55
2018-12-23T12:25:58.708Z,8.56
2018-12-23T12:26:58.686Z,8.61
2018-12-23T12:27:58.664Z,8.65
2018-12-23T12:28:58.640Z,8.55
2018-12-23T12:29:58.623Z,8.61
2018-12-23T12:30:58.599Z,8.56
2018-12-23T12:31:58.578Z,8.70
2018-12-23T12:32:58.550Z,8.61
2018-12-23T12:33:58.540Z,8.59
2018-12-23T12:34:59.285Z,8.53
2018-12-23T12:35:58.481Z,8.45
2018-12-23T12:36:58.467Z,8.41
2018-12-23T12:37:58.438Z,8.45
2018-12-23T12:38:58.410Z,8.43
2018-12-23T12:39:58.394Z,8.37
2018-12-23T12:40:58.394Z,8.38
2018-12-23T12:41:58.345Z,8.38
2018-12-23T12:42:58.317Z,8.34
2018-12-23T12:43:58.298Z,8.37
2018-12-23T12:44:58.280Z,8.37
2018-12-23T12:46:00.630Z,8.38
2018-12-23T12:46:58.227Z,8.34
2018-12-23T12:47:58.216Z,8.34
2018-12-23T12:48:58.192Z,8.41
2018-12-23T12:49:58.164Z,8.36
2018-12-23T12:50:58.137Z,8.36
2018-12-23T12:51:58.113Z,8.45
2018-12-23T12:52:58.093Z,8.40
2018-12-23T12:53:58.071Z,8.48
2018-12-23T12:54:58.048Z,8.52
2018-12-23T12:55:58.024Z,8.52
2018-12-23T12:56:58.001Z,8.47
2018-12-23T12:57:57.987Z,8.40
2018-12-23T12:58:57.955Z,8.41
2018-12-23T12:59:57.932Z,8.43
2018-12-23T13:00:57.910Z,8.48
2018-12-23T13:01:57.892Z,8.50
2018-12-23T13:02:57.868Z,8.50
2018-12-23T13:03:58.982Z,8.58
2018-12-23T13:04:57.822Z,8.56
2018-12-23T13:05:57.799Z,8.59
2018-12-23T13:06:57.775Z,8.58
2018-12-23T13:07:57.753Z,8.59
2018-12-23T13:09:00.628Z,8.58
2018-12-23T13:09:57.730Z,8.63
2018-12-23T13:10:57.684Z,8.52
2018-12-23T13:11:57.663Z,8.61
2018-12-23T13:12:57.660Z,8.59
2018-12-23T13:13:57.619Z,8.56
2018-12-23T13:14:57.608Z,8.56
2018-12-23T13:15:57.578Z,8.59
2018-12-23T13:16:57.557Z,8.62
2018-12-23T13:17:57.529Z,8.55